createdAt,value
2018-10-09T00:01:40.219Z,7.67
2018-10-09T00:04:08.840Z,6.25
2018-10-09T00:06:37.194Z,7.28
2018-10-09T00:09:06.855Z,6.65
2018-10-09T00:11:35.150Z,6.95
2018-10-09T00:14:03.538Z,5.25
2018-10-09T00:16:31.755Z,9.45
2018-10-09T00:19:00.084Z,5.47
2018-10-09T00:21:28.418Z,8.18
2018-10-09T00:23:56.685Z,6.92
2018-10-09T00:26:24.971Z,7.72
2018-10-09T00:28:53.215Z,6.95
2018-10-09T00:31:21.360Z,6.15
2018-10-09T00:33:49.534Z,5.80
2018-10-09T00:36:17.847Z,5.22
2018-10-09T00:38:46.010Z,7.10
2018-10-09T00:41:14.246Z,7.65
2018-10-09T00:43:42.387Z,6.25
2018-10-09T00:46:10.542Z,6.95
2018-10-09T00:48:38.737Z,5.47
2018-10-09T00:51:06.992Z,5.87
2018-10-09T00:53:35.286Z,6.60
2018-10-09T00:56:03.454Z,5.47
2018-10-09T00:58:31.612Z,4.90
2018-10-09T01:00:59.762Z,5.85
2018-10-09T01:03:27.936Z,7.50
2018-10-09T01:05:56.084Z,6.53
2018-10-09T01:08:24.227Z,7.70
2018-10-09T01:10:52.433Z,6.03
2018-10-09T01:13:20.571Z,5.60
2018-10-09T01:15:48.726Z,5.87
2018-10-09T01:18:16.868Z,9.10
2018-10-09T01:20:45.015Z,6.10
2018-10-09T01:23:13.184Z,4.62
2018-10-09T01:25:41.330Z,5.42
2018-10-09T01:28:09.492Z,5.87
2018-10-09T01:30:37.632Z,6.00
2018-10-09T01:33:05.842Z,6.00
2018-10-09T01:35:34.040Z,5.35
2018-10-09T01:38:02.207Z,5.83
2018-10-09T01:40:30.423Z,6.08
2018-10-09T01:42:58.575Z,5.20
2018-10-09T01:45:26.755Z,5.10
2018-10-09T01:47:54.899Z,5.78
2018-10-09T01:50:23.043Z,5.47
2018-10-09T01:52:51.263Z,5.92
2018-10-09T01:55:19.410Z,4.87
2018-10-09T01:57:47.571Z,5.20
2018-10-09T02:00:15.723Z,10.08
2018-10-09T02:02:43.887Z,5.35
2018-10-09T02:05:12.031Z,5.45
2018-10-09T02:07:40.179Z,4.70
2018-10-09T02:10:08.343Z,5.22
2018-10-09T02:12:36.527Z,6.28
2018-10-09T02:15:05.334Z,6.33
2018-10-09T02:17:33.478Z,4.58
2018-10-09T02:20:01.660Z,5.65
2018-10-09T02:22:29.822Z,4.75
2018-10-09T02:24:57.978Z,5.42
2018-10-09T02:27:26.135Z,5.03
2018-10-09T02:29:54.286Z,5.33
2018-10-09T02:32:22.478Z,4.92
2018-10-09T02:34:50.676Z,5.08
2018-10-09T02:37:18.848Z,4.90
2018-10-09T02:39:47.012Z,5.60
2018-10-09T02:42:15.156Z,8.40
2018-10-09T02:44:43.294Z,5.15
2018-10-09T02:47:11.442Z,5.45
2018-10-09T02:49:39.583Z,7.40
2018-10-09T02:52:07.725Z,6.35
2018-10-09T02:54:35.892Z,12.55
2018-10-09T02:57:04.080Z,5.53
2018-10-09T02:59:32.234Z,6.65
2018-10-09T03:02:00.387Z,7.03
2018-10-09T03:04:28.562Z,4.83
2018-10-09T03:06:56.730Z,5.17
2018-10-09T03:09:24.929Z,7.87
2018-10-09T03:11:53.106Z,8.83
2018-10-09T03:14:21.266Z,6.75
2018-10-09T03:16:49.411Z,5.97
2018-10-09T03:19:17.548Z,6.08
2018-10-09T03:21:45.696Z,6.80
2018-10-09T03:24:13.872Z,5.40
2018-10-09T03:26:42.039Z,6.80
2018-10-09T03:29:10.206Z,6.60
2018-10-09T03:31:38.435Z,8.48
2018-10-09T03:34:06.647Z,7.25
2018-10-09T03:36:34.818Z,7.15
2018-10-09T03:39:03.907Z,6.47
2018-10-09T03:41:32.094Z,7.50
2018-10-09T03:44:00.260Z,5.87
2018-10-09T03:46:28.427Z,5.62
2018-10-09T03:48:56.591Z,8.10
2018-10-09T03:51:24.790Z,6.60
2018-10-09T03:53:53.004Z,6.15
2018-10-09T03:56:21.176Z,4.83
2018-10-09T03:58:49.342Z,5.70
2018-10-09T04:01:17.483Z,8.23
2018-10-09T04:03:45.631Z,6.05
2018-10-09T04:06:13.817Z,10.80
2018-10-09T04:08:41.982Z,6.80
2018-10-09T04:11:10.156Z,5.22
2018-10-09T04:13:38.325Z,7.12
2018-10-09T04:16:07.280Z,6.58
2018-10-09T04:18:35.451Z,9.33
2018-10-09T04:21:03.591Z,5.80
2018-10-09T04:23:31.823Z,4.90
2018-10-09T04:25:59.959Z,7.37
2018-10-09T04:28:28.118Z,5.80
2018-10-09T04:30:56.275Z,5.78
2018-10-09T04:33:24.435Z,7.45
2018-10-09T04:35:52.605Z,7.50
2018-10-09T04:38:20.823Z,7.35
2018-10-09T04:40:48.999Z,8.68
2018-10-09T04:43:17.171Z,9.55
2018-10-09T04:45:45.343Z,6.90
2018-10-09T04:48:13.508Z,6.40
2018-10-09T04:50:41.655Z,7.00
2018-10-09T04:53:09.909Z,8.15
2018-10-09T04:55:38.009Z,6.03
2018-10-09T04:58:06.184Z,7.15
2018-10-09T05:00:34.330Z,5.70
2018-10-09T05:03:02.482Z,7.20
2018-10-09T05:05:30.638Z,7.30
2018-10-09T05:07:58.794Z,11.57
2018-10-09T05:10:26.978Z,8.23
2018-10-09T05:12:55.113Z,7.70
2018-10-09T05:15:23.267Z,7.28
2018-10-09T05:17:51.540Z,8.50
2018-10-09T05:20:19.599Z,5.95
2018-10-09T05:22:47.771Z,7.70
2018-10-09T05:25:15.967Z,7.37
2018-10-09T05:27:44.130Z,6.40
2018-10-09T05:30:12.282Z,8.25
2018-10-09T05:32:40.439Z,6.15
2018-10-09T05:35:08.591Z,6.75
2018-10-09T05:37:36.786Z,7.08
2018-10-09T05:40:05.052Z,9.85
2018-10-09T05:42:33.264Z,5.15
2018-10-09T05:45:01.413Z,8.48
2018-10-09T05:47:29.570Z,7.35
2018-10-09T05:49:57.749Z,5.90
2018-10-09T05:52:26.051Z,5.22
2018-10-09T05:54:54.189Z,6.50
2018-10-09T05:57:22.382Z,6.40
2018-10-09T05:59:50.542Z,7.08
2018-10-09T06:02:18.709Z,6.87
2018-10-09T06:04:46.895Z,5.55
2018-10-09T06:07:15.027Z,5.25
2018-10-09T06:09:43.216Z,6.85
2018-10-09T06:12:11.370Z,8.50
2018-10-09T06:14:39.547Z,7.08
2018-10-09T06:17:07.709Z,8.08
2018-10-09T06:19:35.858Z,7.95
2018-10-09T06:22:04.018Z,6.53
2018-10-09T06:24:32.216Z,5.90
2018-10-09T06:27:00.351Z,8.63
2018-10-09T06:29:28.525Z,5.33
2018-10-09T06:31:56.738Z,6.03
2018-10-09T06:34:24.915Z,9.30
2018-10-09T06:36:53.063Z,6.30
2018-10-09T06:39:21.251Z,8.35
2018-10-09T06:41:49.406Z,6.80
2018-10-09T06:44:17.579Z,8.70
2018-10-09T06:46:45.735Z,5.67
2018-10-09T06:49:13.891Z,6.42
2018-10-09T06:51:42.044Z,6.22
2018-10-09T06:54:10.372Z,7.75
2018-10-09T06:56:38.364Z,14.05
2018-10-09T06:59:06.545Z,7.87
2018-10-09T07:01:34.673Z,8.28
2018-10-09T07:04:02.797Z,9.85
2018-10-09T07:06:30.967Z,8.25
2018-10-09T07:08:59.076Z,7.35
2018-10-09T07:11:27.224Z,7.83
2018-10-09T07:13:55.387Z,7.83
2018-10-09T07:16:23.539Z,6.80
2018-10-09T07:18:51.688Z,7.17
2018-10-09T07:21:19.864Z,9.45
2018-10-09T07:23:48.025Z,7.20
2018-10-09T07:26:16.164Z,7.80
2018-10-09T07:28:44.311Z,7.63
2018-10-09T07:31:12.466Z,7.07
2018-10-09T07:33:40.626Z,6.37
2018-10-09T07:36:09.009Z,6.70
2018-10-09T07:38:37.202Z,6.73
2018-10-09T07:41:05.514Z,6.13
2018-10-09T07:43:33.709Z,6.73
2018-10-09T07:46:02.033Z,9.60
2018-10-09T07:48:30.271Z,13.40
2018-10-09T07:50:58.694Z,6.93
2018-10-09T07:53:26.906Z,7.93
2018-10-09T07:55:55.153Z,6.73
2018-10-09T07:58:23.383Z,8.67
2018-10-09T08:00:51.625Z,6.23
2018-10-09T08:03:19.984Z,11.17
2018-10-09T08:05:48.235Z,6.10
2018-10-09T08:08:16.788Z,7.77
2018-10-09T08:10:45.040Z,7.90
2018-10-09T08:13:13.143Z,7.50
2018-10-09T08:15:41.281Z,7.03
2018-10-09T08:18:09.435Z,9.37
2018-10-09T08:20:37.612Z,7.10
2018-10-09T08:23:05.844Z,7.20
2018-10-09T08:25:33.987Z,6.80
2018-10-09T08:28:02.219Z,8.97
2018-10-09T08:30:30.360Z,10.80
2018-10-09T08:32:58.499Z,9.03
2018-10-09T08:35:26.648Z,8.50
2018-10-09T08:37:54.832Z,8.57
2018-10-09T08:40:23.080Z,8.70
2018-10-09T08:42:51.176Z,6.90
2018-10-09T08:45:19.365Z,7.57
2018-10-09T08:47:47.512Z,8.47
2018-10-09T08:50:15.725Z,9.27
2018-10-09T08:52:43.969Z,9.20
2018-10-09T08:55:12.882Z,9.73
2018-10-09T08:57:41.097Z,9.33
2018-10-09T09:00:10.227Z,13.80
2018-10-09T09:02:38.371Z,8.37
2018-10-09T09:05:07.208Z,10.37
2018-10-09T09:07:35.384Z,11.50
2018-10-09T09:10:03.548Z,13.00
2018-10-09T09:12:31.707Z,11.60
2018-10-09T09:14:59.863Z,12.03
2018-10-09T09:17:28.014Z,9.90
2018-10-09T09:19:56.207Z,13.40
2018-10-09T09:22:24.398Z,10.10
2018-10-09T09:24:52.550Z,12.50
2018-10-09T09:27:20.726Z,12.67
2018-10-09T09:29:48.859Z,11.80
2018-10-09T09:32:17.008Z,15.37
2018-10-09T09:34:45.155Z,13.63
2018-10-09T09:37:13.503Z,17.57
2018-10-09T09:39:41.679Z,14.13
2018-10-09T09:42:09.831Z,14.20
2018-10-09T09:44:37.975Z,20.50
2018-10-09T09:47:06.124Z,18.20
2018-10-09T09:49:34.330Z,17.20
2018-10-09T09:52:02.552Z,17.90
2018-10-09T09:54:30.659Z,16.13
2018-10-09T09:56:58.819Z,19.17
2018-10-09T09:59:26.947Z,18.00
2018-10-09T10:01:55.091Z,17.73
2018-10-09T10:04:23.243Z,18.33
2018-10-09T10:06:51.390Z,17.40
2018-10-09T10:09:20.572Z,15.10
2018-10-09T10:11:48.695Z,15.60
2018-10-09T10:14:16.913Z,16.03
2018-10-09T10:16:45.084Z,18.00
2018-10-09T10:19:13.234Z,16.73
2018-10-09T10:21:41.374Z,19.27
2018-10-09T10:24:09.520Z,16.20
2018-10-09T10:26:37.667Z,18.07
2018-10-09T10:29:06.206Z,16.97
2018-10-09T10:31:34.329Z,17.83
2018-10-09T10:34:02.535Z,17.37
2018-10-09T10:36:30.755Z,16.03
2018-10-09T10:38:58.925Z,17.57
2018-10-09T10:41:27.067Z,16.70
2018-10-09T10:43:55.254Z,13.97
2018-10-09T10:46:23.416Z,15.87
2018-10-09T10:49:00.245Z,16.90
2018-10-09T10:51:28.351Z,16.10
2018-10-09T10:53:56.657Z,17.97
2018-10-09T10:56:24.818Z,15.03
2018-10-09T10:58:52.983Z,15.53
2018-10-09T11:01:21.191Z,16.40
2018-10-09T11:03:49.262Z,18.77
2018-10-09T11:06:17.530Z,18.13
2018-10-09T11:08:46.043Z,19.20
2018-10-09T11:11:14.191Z,18.57
2018-10-09T11:13:42.354Z,18.10
2018-10-09T11:16:10.502Z,19.27
2018-10-09T11:18:38.659Z,15.60
2018-10-09T11:21:06.947Z,16.13
2018-10-09T11:23:35.056Z,19.17
2018-10-09T11:26:03.267Z,19.73
2018-10-09T11:28:31.796Z,17.80
2018-10-09T11:31:00.423Z,19.07
2018-10-09T11:33:28.716Z,18.80
2018-10-09T11:35:56.879Z,16.40
2018-10-09T11:38:26.171Z,19.33
2018-10-09T11:40:54.324Z,20.00
2018-10-09T11:43:22.493Z,17.67
2018-10-09T11:45:50.651Z,18.80
2018-10-09T11:48:18.871Z,16.97
2018-10-09T11:50:47.097Z,21.03
2018-10-09T11:53:15.231Z,19.53
2018-10-09T11:55:43.363Z,17.83
2018-10-09T11:58:11.511Z,16.90
2018-10-09T12:00:41.235Z,20.10
2018-10-09T12:03:09.383Z,17.27
2018-10-09T12:05:37.937Z,21.43
2018-10-09T12:08:06.187Z,17.67
2018-10-09T12:10:34.293Z,18.33
2018-10-09T12:13:02.824Z,17.77
2018-10-09T12:15:30.977Z,16.30
2018-10-09T12:17:59.163Z,15.27
2018-10-09T12:20:27.404Z,16.40
2018-10-09T12:22:55.614Z,19.10
2018-10-09T12:25:23.817Z,18.77
2018-10-09T12:27:52.031Z,15.37
2018-10-09T12:30:20.433Z,18.57
2018-10-09T12:32:48.591Z,17.63
2018-10-09T12:35:16.726Z,21.87
2018-10-09T12:37:45.029Z,18.70
2018-10-09T12:40:13.249Z,15.93
2018-10-09T12:42:41.420Z,14.93
2018-10-09T12:45:09.692Z,16.77
2018-10-09T12:47:37.861Z,15.27
2018-10-09T12:50:06.624Z,19.80
2018-10-09T12:52:34.864Z,16.30
2018-10-09T12:55:03.033Z,15.77
2018-10-09T12:57:31.234Z,16.10
2018-10-09T12:59:59.376Z,15.27
2018-10-09T13:02:27.523Z,21.10
2018-10-09T13:04:55.670Z,20.60
2018-10-09T13:07:23.818Z,18.43
2018-10-09T13:09:52.002Z,14.67
2018-10-09T13:12:20.149Z,16.40
2018-10-09T13:14:48.303Z,14.30
2018-10-09T13:17:16.502Z,14.53
2018-10-09T13:19:44.743Z,18.57
2018-10-09T13:22:13.206Z,17.53
2018-10-09T13:24:41.157Z,17.43
2018-10-09T13:27:09.588Z,15.90
2018-10-09T13:29:37.804Z,14.83
2018-10-09T13:32:06.011Z,14.70
2018-10-09T13:34:34.753Z,15.23
2018-10-09T13:37:02.859Z,17.63
2018-10-09T13:39:31.053Z,14.03
2018-10-09T13:41:59.273Z,14.43
2018-10-09T13:44:27.401Z,16.10
2018-10-09T13:46:55.963Z,15.07
2018-10-09T13:49:24.131Z,14.53
2018-10-09T13:51:52.502Z,16.53
2018-10-09T13:54:20.632Z,14.73
2018-10-09T13:56:48.787Z,21.70
2018-10-09T13:59:16.967Z,15.63
2018-10-09T14:01:45.203Z,19.83
2018-10-09T14:04:13.317Z,17.23
2018-10-09T14:06:41.440Z,18.60
2018-10-09T14:09:10.734Z,20.83
2018-10-09T14:11:39.360Z,19.80
2018-10-09T14:14:07.561Z,20.70
2018-10-09T14:16:35.748Z,17.33
2018-10-09T14:19:03.951Z,17.43
2018-10-09T14:21:32.196Z,25.10
2018-10-09T14:24:00.443Z,16.23
2018-10-09T14:26:28.624Z,17.33
2018-10-09T14:28:56.799Z,19.77
2018-10-09T14:31:24.983Z,15.50
2018-10-09T14:33:53.207Z,16.53
2018-10-09T14:36:21.412Z,18.53
2018-10-09T14:38:49.558Z,16.20
2018-10-09T14:41:17.719Z,21.80
2018-10-09T14:43:45.870Z,17.07
2018-10-09T14:46:14.039Z,15.13
2018-10-09T14:48:42.176Z,14.73
2018-10-09T14:51:10.610Z,15.83
2018-10-09T14:53:38.853Z,15.87
2018-10-09T14:56:07.056Z,21.30
2018-10-09T14:58:35.201Z,15.63
2018-10-09T15:01:03.380Z,16.77
2018-10-09T15:03:31.722Z,15.67
2018-10-09T15:05:59.774Z,16.20
2018-10-09T15:08:27.950Z,14.23
2018-10-09T15:10:56.128Z,16.83
2018-10-09T15:13:24.317Z,17.53
2018-10-09T15:15:52.503Z,17.63
2018-10-09T15:18:20.674Z,17.87
2018-10-09T15:20:48.790Z,15.97
2018-10-09T15:23:16.931Z,19.67
2018-10-09T15:25:45.095Z,13.80
2018-10-09T15:28:13.259Z,15.23
2018-10-09T15:30:41.443Z,17.30
2018-10-09T15:33:09.607Z,15.37
2018-10-09T15:35:37.780Z,15.97
2018-10-09T15:38:06.052Z,15.40
2018-10-09T15:40:34.248Z,18.00
2018-10-09T15:43:02.509Z,17.73
2018-10-09T15:45:30.688Z,16.37
2018-10-09T15:47:58.888Z,15.63
2018-10-09T15:50:27.099Z,15.83
2018-10-09T15:52:55.510Z,15.30
2018-10-09T15:55:23.786Z,17.23
2018-10-09T15:57:51.954Z,19.70
2018-10-09T16:00:20.135Z,18.60
2018-10-09T16:02:48.303Z,15.47
2018-10-09T16:05:16.486Z,16.63
2018-10-09T16:07:44.671Z,16.80
2018-10-09T16:10:12.836Z,18.47
2018-10-09T16:12:41.587Z,22.97
2018-10-09T16:15:09.754Z,18.77
2018-10-09T16:17:37.900Z,21.43
2018-10-09T16:20:06.404Z,17.33
2018-10-09T16:22:34.527Z,20.73
2018-10-09T16:25:02.705Z,20.20
2018-10-09T16:27:30.823Z,20.20
2018-10-09T16:29:58.954Z,19.90
2018-10-09T16:32:27.186Z,22.30
2018-10-09T16:34:55.324Z,18.07
2018-10-09T16:37:23.488Z,19.80
2018-10-09T16:39:51.628Z,20.17
2018-10-09T16:42:19.982Z,19.40
2018-10-09T16:44:48.226Z,20.90
2018-10-09T16:47:16.541Z,19.07
2018-10-09T16:49:44.850Z,19.87
2018-10-09T16:52:13.218Z,18.30
2018-10-09T16:54:41.515Z,20.77
2018-10-09T16:57:09.775Z,23.70
2018-10-09T16:59:38.139Z,19.70
2018-10-09T17:02:07.215Z,18.87
2018-10-09T17:04:35.464Z,21.13
2018-10-09T17:07:03.756Z,22.20
2018-10-09T17:09:31.956Z,23.43
2018-10-09T17:12:00.234Z,19.50
2018-10-09T17:14:28.541Z,22.97
2018-10-09T17:16:56.799Z,20.13
2018-10-09T17:19:25.028Z,21.13
2018-10-09T17:21:53.330Z,20.77
2018-10-09T17:24:21.550Z,18.57
2018-10-09T17:26:49.816Z,20.70
2018-10-09T17:29:17.952Z,18.53
2018-10-09T17:31:46.190Z,21.77
2018-10-09T17:34:14.496Z,29.17
2018-10-09T17:36:42.747Z,22.07
2018-10-09T17:39:11.902Z,20.50
2018-10-09T17:41:40.291Z,20.30
2018-10-09T17:44:08.921Z,22.47
2018-10-09T17:46:38.013Z,21.57
2018-10-09T17:49:06.271Z,19.60
2018-10-09T17:51:34.552Z,18.63
2018-10-09T17:54:02.761Z,19.80
2018-10-09T17:56:30.917Z,19.73
2018-10-09T17:58:59.070Z,23.93
2018-10-09T18:01:27.319Z,21.70
2018-10-09T18:03:55.727Z,22.20
2018-10-09T18:06:24.093Z,22.83
2018-10-09T18:08:52.278Z,23.03
2018-10-09T18:11:20.420Z,25.50
2018-10-09T18:13:48.689Z,22.07
2018-10-09T18:16:16.877Z,24.90
2018-10-09T18:18:45.053Z,26.53
2018-10-09T18:21:13.220Z,21.47
2018-10-09T18:23:41.543Z,20.10
2018-10-09T18:26:10.814Z,18.77
2018-10-09T18:28:39.022Z,23.67
2018-10-09T18:31:07.324Z,22.85
2018-10-09T18:33:35.639Z,21.48
2018-10-09T18:36:03.859Z,20.77
2018-10-09T18:38:32.236Z,24.60
2018-10-09T18:41:00.545Z,21.33
2018-10-09T18:43:28.771Z,22.25
2018-10-09T18:45:57.032Z,24.72
2018-10-09T18:48:25.302Z,21.10
2018-10-09T18:50:53.601Z,25.08
2018-10-09T18:53:22.796Z,27.95
2018-10-09T18:55:51.683Z,25.80
2018-10-09T18:58:19.986Z,23.27
2018-10-09T19:00:48.231Z,21.57
2018-10-09T19:03:16.536Z,20.08
2018-10-09T19:05:44.817Z,20.65
2018-10-09T19:08:13.166Z,21.00
2018-10-09T19:10:41.455Z,25.02
2018-10-09T19:13:09.700Z,22.65
2018-10-09T19:15:38.041Z,20.08
2018-10-09T19:18:06.564Z,26.00
2018-10-09T19:20:34.889Z,26.90
2018-10-09T19:23:03.183Z,19.52
2018-10-09T19:25:31.472Z,21.70
2018-10-09T19:27:59.759Z,20.37
2018-10-09T19:30:28.007Z,20.05
2018-10-09T19:32:58.182Z,21.75
2018-10-09T19:35:26.538Z,21.05
2018-10-09T19:37:54.871Z,22.87
2018-10-09T19:40:23.173Z,25.30
2018-10-09T19:42:51.899Z,22.10
2018-10-09T19:45:20.287Z,22.60
2018-10-09T19:47:48.621Z,21.37
2018-10-09T19:50:16.854Z,23.80
2018-10-09T19:52:45.767Z,22.77
2018-10-09T19:55:18.342Z,21.10
2018-10-09T19:57:47.333Z,19.75
2018-10-09T20:00:15.645Z,20.45
2018-10-09T20:02:43.950Z,21.02
2018-10-09T20:05:12.175Z,20.12
2018-10-09T20:07:40.524Z,19.07
2018-10-09T20:10:09.379Z,24.23
2018-10-09T20:12:37.663Z,23.40
2018-10-09T20:15:05.908Z,21.02
2018-10-09T20:17:34.114Z,18.92
2018-10-09T20:20:02.372Z,22.45
2018-10-09T20:22:30.649Z,22.00
2018-10-09T20:24:59.008Z,22.73
2018-10-09T20:27:27.196Z,18.92
2018-10-09T20:29:55.394Z,23.42
2018-10-09T20:32:23.729Z,19.30
2018-10-09T20:34:52.019Z,25.30
2018-10-09T20:37:20.606Z,20.88
2018-10-09T20:39:48.815Z,22.30
2018-10-09T20:42:17.053Z,22.80
2018-10-09T20:44:45.379Z,21.33
2018-10-09T20:47:13.678Z,26.12
2018-10-09T20:49:41.914Z,20.77
2018-10-09T20:52:10.216Z,23.02
2018-10-09T20:54:38.500Z,23.52
2018-10-09T20:57:06.880Z,20.15
2018-10-09T20:59:35.144Z,24.67
2018-10-09T21:02:03.380Z,19.62
2018-10-09T21:04:31.518Z,22.10
2018-10-09T21:06:59.708Z,23.18
2018-10-09T21:09:27.874Z,22.62
2018-10-09T21:11:56.002Z,22.65
2018-10-09T21:14:24.144Z,23.40
2018-10-09T21:16:52.304Z,22.48
2018-10-09T21:19:20.479Z,25.27
2018-10-09T21:21:48.739Z,22.42
2018-10-09T21:24:16.957Z,24.55
2018-10-09T21:26:45.149Z,24.18
2018-10-09T21:29:13.338Z,25.75
2018-10-09T21:31:41.511Z,21.73
2018-10-09T21:34:09.684Z,22.87
2018-10-09T21:36:37.915Z,21.27
2018-10-09T21:39:07.199Z,20.02
2018-10-09T21:41:35.530Z,22.77
2018-10-09T21:44:03.760Z,22.13
2018-10-09T21:46:31.981Z,22.90
2018-10-09T21:49:00.168Z,23.40
2018-10-09T21:51:28.332Z,21.62
2018-10-09T21:53:56.476Z,23.07
2018-10-09T21:56:24.634Z,22.17
2018-10-09T21:58:52.780Z,26.37
2018-10-09T22:01:20.971Z,22.60
2018-10-09T22:03:49.117Z,22.22
2018-10-09T22:06:17.261Z,23.65
2018-10-09T22:08:45.412Z,19.50
2018-10-09T22:11:13.539Z,24.52
2018-10-09T22:13:41.695Z,21.65
2018-10-09T22:16:09.872Z,21.00
2018-10-09T22:18:38.122Z,40.17
2018-10-09T22:21:06.704Z,25.27
2018-10-09T22:23:34.924Z,26.62
2018-10-09T22:26:03.091Z,24.57
2018-10-09T22:28:31.223Z,23.27
2018-10-09T22:30:59.367Z,25.75
2018-10-09T22:33:27.642Z,29.72
2018-10-09T22:35:55.933Z,29.00
2018-10-09T22:38:24.194Z,29.75
2018-10-09T22:40:52.299Z,29.23
2018-10-09T22:43:20.481Z,35.50
2018-10-09T22:45:48.622Z,37.38
2018-10-09T22:48:16.797Z,33.35
2018-10-09T22:50:44.980Z,31.93
2018-10-09T22:53:13.937Z,39.90
2018-10-09T22:55:42.222Z,42.67
2018-10-09T22:58:10.451Z,48.00
2018-10-09T23:00:38.669Z,28.50
2018-10-09T23:03:06.850Z,28.85
2018-10-09T23:05:34.992Z,28.27
2018-10-09T23:08:03.147Z,28.85
2018-10-09T23:10:31.295Z,35.40
2018-10-09T23:12:59.468Z,31.12
2018-10-09T23:15:27.634Z,40.83
2018-10-09T23:17:55.791Z,25.12
2018-10-09T23:20:23.991Z,31.87
2018-10-09T23:22:52.143Z,33.05
2018-10-09T23:25:20.283Z,39.65
2018-10-09T23:27:48.468Z,31.17
2018-10-09T23:30:16.615Z,33.90
2018-10-09T23:32:44.754Z,38.67
2018-10-09T23:35:12.931Z,31.45
2018-10-09T23:37:41.051Z,34.10
2018-10-09T23:40:09.196Z,27.60
2018-10-09T23:42:37.377Z,24.92
2018-10-09T23:45:05.527Z,30.43
2018-10-09T23:47:33.678Z,28.57
2018-10-09T23:50:01.848Z,27.93
2018-10-09T23:52:30.003Z,29.05
2018-10-09T23:54:58.427Z,36.13
2018-10-09T23:57:26.610Z,27.58
2018-10-09T23:59:54.722Z,31.33
